Latest Weather Observations for Green Cape

IDN60801

Issued at 6:03 am EDT Wednesday 13 November 2019 (issued every 10 minutes, with the page automatically refreshed every 10 minutes)

About weather observations | Map of weather stations | Latest weather observations for NSW | Other Formats
Station Details ID: 069137 Name: GREEN CAPE AWS Lat: -37.26 Lon: 150.05 Height: 19.4 m
Data from the previous 72 hours. | See also: Recent months at Green Cape
Date/Time
EDT
Temp
°C
App
Temp
°C
Dew
Point
°C
Rel
Hum
%
Delta-T
°C
Wind Press
QNH
hPa
Press
MSL
hPa
Rain since
9am
mm
Dir  Spd
km/h
Gust
km/h
Spd
kts
Gust
kts
13/06:00am 11.0 2.1 3.1 58 3.4 WSW 39 50 21 27 1010.4 1010.4 0.0
13/05:30am 11.1 1.6 4.1 62 3.1 WSW 43 56 23 30 1010.1 1010.1 0.0
13/05:18am 11.2 2.5 4.0 61 3.2 WSW 39 59 21 32 1010.1 1010.1 0.0
13/05:00am 11.2 2.1 4.0 61 3.2 WSW 41 56 22 30 1010.1 1010.1 0.0
13/04:30am 11.2 3.7 3.3 58 3.5 WSW 32 46 17 25 1010.6 1010.6 0.0
13/04:00am 11.3 3.2 3.1 57 3.6 WSW 35 54 19 29 1010.7 1010.7 0.0
13/03:58am 11.4 3.8 3.9 60 3.3 WSW 33 52 18 28 1010.8 1010.8 0.0
13/03:30am 11.3 4.7 4.1 61 3.2 WSW 28 37 15 20 1010.8 1010.8 0.0
13/03:01am 11.7 3.1 4.7 62 3.2 WSW 39 57 21 31 1010.8 1010.8 0.0
13/03:00am 11.6 2.1 4.1 60 3.4 WSW 43 57 23 31 1010.7 1010.7 0.0
13/02:30am 11.9 2.4 3.9 58 3.6 WSW 43 54 23 29 1010.2 1010.2 0.0
13/02:10am 11.9 1.2 4.6 61 3.3 WSW 50 70 27 38 1010.2 1010.2 0.0
13/02:00am 12.1 1.2 5.3 63 3.1 WSW 52 69 28 37 1010.0 1010.0 0.0
13/01:30am 12.4 3.0 5.3 62 3.3 WSW 44 63 24 34 1009.9 1009.9 0.0
13/01:00am 12.6 3.4 5.5 62 3.3 WSW 43 61 23 33 1010.1 1010.1 0.0
13/12:49am 12.8 4.1 6.2 64 3.1 WSW 41 61 22 33 1009.9 1009.9 0.0
13/12:30am 12.9 4.6 6.0 63 3.3 WSW 39 54 21 29 1009.7 1009.7 0.0
13/12:00am 13.2 4.2 6.3 63 3.3 WSW 43 57 23 31 1009.4 1009.4 0.0
 
Date/Time
EDT
Temp
°C
App
Temp
°C
Dew
Point
°C
Rel
Hum
%
Delta-T
°C
Wind Press
QNH
hPa
Press
MSL
hPa
Rain since
9am
mm
Dir  Spd
km/h
Gust
km/h
Spd
kts
Gust
kts
12/11:36pm 13.4 5.7 7.0 65 3.1 SW 37 57 20 31 1009.3 1009.3 0.0
12/11:30pm 13.3 4.3 6.6 64 3.2 SW 43 57 23 31 1009.0 1009.0 0.0
12/11:20pm 13.3 6.2 6.6 64 3.2 SW 33 54 18 29 1009.1 1009.1 0.0
12/11:00pm 13.5 5.3 6.4 62 3.4 SW 39 50 21 27 1009.1 1009.1 0.0
12/10:30pm 13.6 6.9 7.4 66 3.0 SW 32 39 17 21 1009.1 1009.1 0.0
12/10:00pm 14.0 6.9 8.0 67 3.0 WSW 35 44 19 24 1009.1 1009.1 0.0
12/09:30pm 14.1 5.9 8.1 67 3.0 WSW 41 50 22 27 1008.8 1008.8 0.0
12/09:00pm 14.3 5.6 8.3 67 3.0 SW 44 56 24 30 1007.8 1007.8 0.0
12/08:30pm 14.4 6.9 8.1 66 3.1 SW 37 46 20 25 1007.5 1007.4 0.0
12/08:00pm 14.6 7.1 7.9 64 3.3 SW 37 50 20 27 1007.0 1006.9 0.0
12/07:30pm 14.9 6.2 7.7 62 3.6 SW 43 52 23 28 1006.4 1006.3 0.0
12/07:00pm 15.0 6.3 7.8 62 3.6 SW 43 52 23 28 1005.7 1005.6 0.0
12/06:59pm 15.0 6.1 7.8 62 3.6 SW 44 54 24 29 1005.7 1005.6 0.0
12/06:30pm 15.6 3.8 7.6 59 4.0 SW 59 76 32 41 1004.4 1004.3 0.0
12/06:00pm 15.7 4.5 7.5 58 4.1 SW 56 70 30 38 1004.1 1004.0 0.0
12/05:30pm 15.9 4.1 8.9 63 3.6 SW 61 72 33 39 1003.6 1003.5 0.0
12/05:10pm 16.0 4.8 8.5 61 3.8 SW 57 76 31 41 1003.2 1003.1 0.0
12/05:00pm 16.1 6.0 9.1 63 3.6 SSW 52 63 28 34 1003.4 1003.3 0.0
12/04:30pm 16.2 6.1 8.9 62 3.7 SW 52 63 28 34 1003.1 1003.0 0.0
12/04:19pm 15.9 6.1 8.6 62 3.7 SW 50 69 27 37 1002.8 1002.7 0.0
12/04:00pm 16.1 6.0 9.1 63 3.6 SW 52 69 28 37 1003.0 1002.9 0.0
12/03:30pm 16.1 4.4 9.3 64 3.5 SW 61 74 33 40 1002.5 1002.4 0.0
12/03:00pm 16.1 4.8 9.5 65 3.4 SW 59 72 32 39 1002.5 1002.4 0.0
12/02:30pm 16.4 5.6 10.0 66 3.4 SSW 57 67 31 36 1002.4 1002.3 0.0
12/02:00pm 16.9 7.3 10.7 67 3.3 SSW 52 61 28 33 1002.5 1002.4 0.0
12/01:30pm 16.6 6.6 10.9 69 3.1 SSW 54 61 29 33 1002.4 1002.3 0.0
12/01:00pm 16.4 6.3 11.6 73 2.6 SSW 56 63 30 34 1002.2 1002.1 0.0
12/12:30pm 16.9 6.8 11.6 71 2.9 SSW 56 65 30 35 1002.3 1002.2 0.0
12/12:00pm 17.3 7.0 11.8 70 3.0 SSW 57 65 31 35 1001.9 1001.8 0.0
12/11:30am 17.6 8.5 12.5 72 2.8 SSW 52 59 28 32 1001.5 1001.4 0.0
12/11:00am 18.0 9.0 12.9 72 2.9 SSW 52 59 28 32 1001.0 1000.9 0.0
12/10:30am 18.1 10.9 13.8 76 2.5 S 44 52 24 28 1001.1 1001.0 0.0
12/10:00am 18.1 9.7 13.4 74 2.7 S 50 63 27 34 1000.4 1000.3 0.0
12/09:41am 20.9 19.8 15.2 70 3.4 N 15 50 8 27 1001.0 1000.9 0.0
12/09:30am 20.5 19.9 15.7 74 2.9 N 13 15 7 8 1000.4 1000.3 0.0
12/09:00am 18.9 16.7 15.0 78 2.3 N 20 24 11 13 1000.4 1000.3 0.0
12/08:30am 18.1 15.3 15.4 84 1.6 N 24 30 13 16 1000.3 1000.2 0.0
12/08:00am 16.7 14.5 14.9 89 1.0 N 20 22 11 12 1000.6 1000.5 0.0
12/07:30am 16.9 14.7 14.9 88 1.2 N 20 24 11 13 1001.0 1000.9 0.0
12/07:00am 17.0 14.2 15.3 90 1.0 N 24 28 13 15 1001.2 1001.1 0.0
12/06:30am 16.9 13.4 15.4 91 0.9 N 28 32 15 17 1001.1 1001.0 0.0
12/06:00am 16.7 13.2 15.6 93 0.6 N 28 33 15 18 1001.1 1001.0 0.0
12/05:30am 16.4 12.7 15.1 92 0.8 N 28 32 15 17 1000.9 1000.8 0.0
12/05:00am 16.5 13.2 15.0 91 0.9 N 26 32 14 17 1001.8 1001.7 0.0
12/04:30am 16.5 13.2 15.0 91 0.9 N 26 30 14 16 1002.2 1002.1 0.0
12/04:00am 16.3 13.9 15.5 95 0.5 N 22 28 12 15 1002.6 1002.5 0.0
12/03:30am 15.7 13.2 15.2 97 0.3 N 22 28 12 15 1003.1 1003.0 0.0
12/03:00am 16.1 13.1 15.8 98 0.2 N 26 32 14 17 1003.4 1003.3 0.0
12/02:30am 16.0 14.3 15.7 98 0.2 N 19 22 10 12 1003.7 1003.6 0.0
12/02:00am 16.2 13.9 15.7 97 0.3 N 22 24 12 13 1004.1 1004.0 0.0
12/01:30am 16.4 14.2 15.9 97 0.3 NNE 22 28 12 15 1004.7 1004.6 0.0
12/01:00am 16.3 14.0 15.7 96 0.4 NNE 22 24 12 13 1005.7 1005.6 0.0
12/12:30am 16.4 14.1 15.6 95 0.5 N 22 24 12 13 1007.0 1006.9 0.0
12/12:00am 16.6 14.0 15.8 95 0.5 N 24 28 13 15 1007.6 1007.5 0.0
 
Date/Time
EDT
Temp
°C
App
Temp
°C
Dew
Point
°C
Rel
Hum
%
Delta-T
°C
Wind Press
QNH
hPa
Press
MSL
hPa
Rain since
9am
mm
Dir  Spd
km/h
Gust
km/h
Spd
kts
Gust
kts
11/11:30pm 16.6 13.1 15.6 94 0.6 N 28 30 15 16 1007.9 1007.9 0.0
11/11:00pm 16.7 12.5 15.6 93 0.6 N 32 33 17 18 1008.3 1008.3 0.0
11/10:30pm 16.8 12.9 15.5 92 0.8 N 30 32 16 17 1008.8 1008.8 0.0
11/10:00pm 16.8 13.0 15.7 93 0.6 N 30 32 16 17 1009.2 1009.2 0.0
11/09:30pm 16.8 12.6 15.8 94 0.6 N 32 33 17 18 1009.1 1009.1 0.0
11/09:00pm 17.0 12.4 16.0 94 0.6 N 35 37 19 20 1008.9 1008.9 0.0
11/08:30pm 16.9 11.8 15.9 94 0.6 N 37 39 20 21 1008.6 1008.6 0.0
11/08:00pm 17.0 13.3 15.9 93 0.6 N 30 33 16 18 1008.9 1008.9 0.0
11/07:30pm 17.2 14.5 15.7 91 0.9 NNE 24 28 13 15 1009.2 1009.2 0.0
11/07:00pm 17.6 16.3 15.8 89 1.1 N 17 20 9 11 1009.4 1009.4 0.0
11/06:30pm 18.4 17.6 16.2 87 1.3 NNE 15 17 8 9 1009.4 1009.4 0.0
11/06:00pm 18.1 17.2 15.9 87 1.3 NNE 15 17 8 9 1009.5 1009.5 0.0
11/05:30pm 18.6 16.7 15.8 84 1.7 NNE 20 22 11 12 1009.7 1009.7 0.0
11/05:00pm 19.7 18.2 16.3 81 2.0 NNE 19 19 10 10 1009.9 1009.9 0.0
11/04:30pm 19.9 18.1 16.0 78 2.3 NNE 20 22 11 12 1009.9 1009.9 0.0
11/04:00pm 20.0 18.1 15.8 77 2.5 N 20 22 11 12 1010.1 1010.1 0.0
11/03:30pm 19.6 16.9 15.5 77 2.4 N 24 28 13 15 1010.3 1010.3 0.0
11/03:00pm 20.0 16.9 15.6 76 2.6 NNE 26 28 14 15 1010.6 1010.6 0.0
11/02:30pm 21.0 18.1 16.2 74 2.9 NNE 26 28 14 15 1010.8 1010.8 0.0
11/02:00pm 21.0 18.5 16.2 74 2.9 NNE 24 28 13 15 1011.3 1011.3 0.0
11/01:30pm 21.1 18.7 16.5 75 2.8 NNE 24 28 13 15 1011.7 1011.7 0.0
11/01:00pm 20.1 17.0 15.5 75 2.7 NNE 26 28 14 15 1012.0 1012.0 0.0
11/12:30pm 20.2 17.4 15.4 74 2.8 NNE 24 26 13 14 1012.4 1012.4 0.0
11/12:00pm 19.6 17.9 14.6 73 2.9 NNE 17 19 9 10 1012.8 1012.8 0.0
11/11:30am 19.9 18.3 14.9 73 2.9 NNE 17 19 9 10 1013.3 1013.3 0.0
11/11:00am 19.2 17.1 14.7 75 2.6 NNE 19 20 10 11 1013.4 1013.4 0.0
11/10:30am 18.6 16.3 14.1 75 2.6 N 19 20 10 11 1013.5 1013.5 0.0
11/10:00am 18.0 15.5 14.1 78 2.2 NNE 20 22 11 12 1013.4 1013.4 0.0
11/09:30am 17.6 15.0 13.9 79 2.1 N 20 22 11 12 1013.6 1013.6 0.0
11/09:00am 16.9 15.3 13.8 82 1.8 N 15 19 8 10 1014.1 1014.1 0.0
11/08:30am 16.5 15.0 13.2 81 1.8 N 13 17 7 9 1014.3 1014.3 0.0
11/08:00am 15.8 15.5 13.3 85 1.4 N 7 11 4 6 1014.3 1014.3 0.0
11/07:30am 14.0 13.9 12.2 89 1.0 W 4 7 2 4 1014.1 1014.1 0.0
11/07:00am 13.8 13.7 12.0 89 1.0 W 4 6 2 3 1014.2 1014.2 0.0
11/06:30am 13.7 13.2 12.1 90 0.9 N 6 11 3 6 1014.2 1014.2 0.0
11/06:00am 13.0 13.5 11.6 91 0.7 CALM 0 0 0 0 1013.9 1013.9 0.0
11/05:30am 12.7 11.1 11.4 92 0.7 W 11 15 6 8 1013.9 1013.9 0.0
11/05:00am 12.9 10.5 11.3 90 0.8 W 15 19 8 10 1013.8 1013.8 0.0
11/04:30am 13.4 11.7 11.3 87 1.1 W 11 15 6 8 1013.5 1013.5 0.0
11/04:00am 12.8 11.3 10.5 86 1.2 NW 9 11 5 6 1013.7 1013.7 0.0
11/03:30am 12.9 11.7 10.4 85 1.3 WNW 7 11 4 6 1013.9 1013.9 0.0
11/03:00am 13.7 11.2 11.2 85 1.3 W 15 19 8 10 1013.8 1013.8 0.0
11/02:30am 13.5 11.7 10.7 83 1.5 WNW 11 19 6 10 1014.2 1014.2 0.0
11/02:00am 14.4 11.6 11.2 81 1.7 WSW 17 24 9 13 1014.3 1014.3 0.0
11/01:30am 14.3 10.9 11.3 82 1.6 WSW 20 28 11 15 1014.5 1014.5 0.0
11/01:00am 14.3 9.3 11.1 81 1.7 WSW 28 39 15 21 1014.5 1014.5 0.0
11/12:30am 14.3 9.4 11.3 82 1.6 SW 28 35 15 19 1014.8 1014.8 0.0
11/12:00am 14.3 8.6 11.3 82 1.6 SW 32 41 17 22 1015.0 1015.0 0.0
 
Date/Time
EDT
Temp
°C
App
Temp
°C
Dew
Point
°C
Rel
Hum
%
Delta-T
°C
Wind Press
QNH
hPa
Press
MSL
hPa
Rain since
9am
mm
Dir  Spd
km/h
Gust
km/h
Spd
kts
Gust
kts
10/11:30pm 14.0 8.6 11.0 82 1.6 WSW 30 35 16 19 1014.9 1014.9 0.0
10/11:00pm 14.1 10.6 10.9 81 1.7 SW 20 28 11 15 1014.8 1014.8 0.0
10/10:30pm 14.3 9.3 10.9 80 1.8 SW 28 37 15 20 1014.6 1014.6 0.0
10/10:00pm 14.4 9.5 11.2 81 1.7 SW 28 35 15 19 1014.7 1014.7 0.0
10/09:30pm 14.2 8.5 11.2 82 1.6 SW 32 39 17 21 1014.5 1014.5 0.0
10/09:00pm 14.2 8.6 11.4 83 1.5 SW 32 39 17 21 1014.3 1014.3 0.0
10/08:30pm 14.2 8.0 11.4 83 1.5 SW 35 44 19 24 1014.1 1014.1 0.0
10/08:00pm 14.3 8.0 11.1 81 1.7 SW 35 48 19 26 1013.9 1013.9 0.0
10/07:30pm 14.4 8.7 11.0 80 1.8 SW 32 41 17 22 1013.7 1013.7 0.0
10/07:00pm 14.9 9.0 11.1 78 2.0 SW 33 41 18 22 1013.2 1013.2 0.0
10/06:30pm 15.4 7.4 11.0 75 2.3 SW 44 54 24 29 1012.8 1012.8 0.0
10/06:04pm 15.9 8.4 10.9 72 2.7 SW 41 61 22 33 1012.4 1012.4 0.0
10/06:00pm 16.1 9.1 11.1 72 2.7 WSW 39 48 21 26 1012.6 1012.6 0.0
10/05:30pm 16.6 8.2 10.9 69 3.1 SW 46 61 25 33 1012.2 1012.2 0.0
10/05:07pm 17.1 9.2 10.9 67 3.3 SW 43 70 23 38 1011.8 1011.8 0.0
10/05:00pm 17.0 9.8 10.6 66 3.4 SW 39 46 21 25 1011.9 1011.9 0.0
10/04:30pm 16.7 7.3 10.3 66 3.4 SW 50 61 27 33 1011.4 1011.4 0.0
10/04:18pm 17.1 10.1 11.2 68 3.2 SW 39 59 21 32 1011.6 1011.6 0.0
10/04:00pm 16.6 7.4 10.9 69 3.1 SW 50 69 27 37 1011.6 1011.6 0.0
10/03:37pm 16.7 8.6 10.8 68 3.2 SW 44 63 24 34 1011.5 1011.5 0.0
10/03:30pm 16.5 8.9 10.6 68 3.1 SSW 41 50 22 27 1011.5 1011.5 0.0
10/03:00pm 16.9 9.0 10.7 67 3.3 SW 43 54 23 29 1011.4 1011.4 0.0
10/02:30pm 17.1 8.2 10.7 66 3.4 SW 48 59 26 32 1011.3 1011.3 0.0
10/02:00pm 16.9 7.4 11.0 68 3.2 WSW 52 72 28 39 1011.1 1011.1 0.0
10/01:50pm 16.7 7.1 10.8 68 3.2 SW 52 72 28 39 1011.3 1011.3 0.0
10/01:30pm 16.6 8.4 11.7 73 2.7 SW 46 56 25 30 1011.3 1011.3 0.0
10/01:00pm 15.9 8.5 12.3 79 2.0 SW 43 61 23 33 1011.3 1011.3 0.0
10/12:49pm 15.4 7.5 11.4 77 2.1 SW 44 67 24 36 1011.3 1011.3 0.0
10/12:30pm 15.4 8.3 12.3 82 1.7 WSW 41 50 22 27 1011.5 1011.5 0.0
10/12:00pm 14.5 7.6 11.7 83 1.5 SW 39 48 21 26 1011.4 1011.4 0.0
10/11:30am 14.0 6.7 11.5 85 1.3 SW 41 54 22 29 1011.2 1011.2 0.0
10/11:00am 14.2 4.8 11.4 83 1.5 SW 52 65 28 35 1011.0 1011.0 0.0
10/10:36am 14.6 6.4 10.4 76 2.2 SW 44 65 24 35 1010.6 1010.6 0.0
10/10:30am 15.1 7.1 10.5 74 2.4 SW 43 56 23 30 1010.7 1010.7 0.0
10/10:00am 15.2 5.0 10.0 71 2.7 WSW 54 72 29 39 1010.1 1010.1 0.0
10/09:40am 15.3 5.2 10.3 72 2.6 WSW 54 74 29 40 1009.8 1009.8 0.0
10/09:30am 15.2 4.4 10.0 71 2.7 WSW 57 74 31 40 1009.8 1009.8 0.0
10/09:00am 14.9 5.2 10.3 74 2.4 SW 52 65 28 35 1009.7 1009.7 0.0
10/08:30am 14.4 3.8 9.8 74 2.4 WSW 56 70 30 38 1009.1 1009.1 0.0
10/08:00am 14.0 4.9 9.8 76 2.2 WSW 48 67 26 36 1008.9 1008.9 0.0
10/07:32am 13.9 4.8 9.9 77 2.1 SW 48 69 26 37 1009.0 1009.0 0.0
10/07:30am 13.9 4.4 9.9 77 2.1 SW 50 69 27 37 1008.8 1008.8 0.0
10/07:00am 13.5 4.7 9.7 78 2.0 WSW 46 59 25 32 1008.6 1008.6 0.0
10/06:30am 13.2 5.0 9.8 80 1.7 WSW 43 69 23 37 1008.3 1008.3 0.0
10/06:25am 13.2 5.8 9.8 80 1.7 WSW 39 57 21 31 1008.3 1008.3 0.0

Other formats

Comma delimited format used in spreadsheet applications
http://www.bom.gov.au/fwo/IDN60801/IDN60801.94934.axf

JavaScript Object Notation format (JSON) in row-major order
http://www.bom.gov.au/fwo/IDN60801/IDN60801.94934.json

Data quality

Most of these data are generated automatically and are frequently updated. Quality checks on data are not normally performed. It is possible for incorrect values to appear. Refer to information at About Latest Weather Observations and please check the disclaimer before using these data.